Time,TemperatureF,DewpointF,PressureIn,WindDirection,WindDirectionDegrees,WindSpeedMPH,WindSpeedGustMPH,Humidity,HourlyPrecipIn,Conditions,Clouds,dailyrainin,SoftwareType,DateUTC
2013-10-24 00:15:00,45.0,37.0,29.70,ENE,59,0.0,2.0,74,0.00,,,-99.99,,2013-10-24 04:15:00,
2013-10-24 00:24:00,45.0,37.0,29.70,WSW,246,1.0,2.0,74,0.00,,,-99.99,,2013-10-24 04:24:00,
2013-10-24 00:54:00,44.0,37.0,29.70,West,263,0.0,1.0,76,0.00,,,-99.99,,2013-10-24 04:54:00,
2013-10-24 01:22:00,43.0,36.0,29.71,West,274,0.0,1.0,77,0.00,,,-99.99,,2013-10-24 05:22:00,
2013-10-24 01:53:00,42.0,37.0,29.71,WNW,288,0.0,1.0,81,0.00,,,-99.99,,2013-10-24 05:53:00,
2013-10-24 02:22:00,42.0,37.0,29.72,SW,224,0.0,1.0,83,0.00,,,-99.99,,2013-10-24 06:22:00,
2013-10-24 02:52:00,41.0,37.0,29.72,ESE,108,0.0,1.0,84,0.00,,,-99.99,,2013-10-24 06:52:00,
2013-10-24 03:12:00,41.0,37.0,29.73,West,277,0.0,3.0,84,0.00,,,-99.99,,2013-10-24 07:12:00,
2013-10-24 03:22:00,41.0,37.0,29.73,West,277,0.0,3.0,84,0.00,,,-99.99,,2013-10-24 07:22:00,
2013-10-24 03:32:00,41.0,37.0,29.73,West,277,0.0,3.0,84,0.00,,,-99.99,,2013-10-24 07:32:00,
2013-10-24 03:42:00,41.0,37.0,29.73,West,277,0.0,3.0,84,0.00,,,-99.99,,2013-10-24 07:42:00,
2013-10-24 03:53:00,40.0,36.0,29.73,WNW,285,0.0,1.0,87,0.00,,,-99.99,,2013-10-24 07:53:00,
2013-10-24 04:22:00,40.0,36.0,29.74,West,270,1.0,2.0,87,0.00,,,-99.99,,2013-10-24 08:22:00,
2013-10-24 04:42:00,39.0,35.0,29.75,WSW,253,0.0,0.0,87,0.00,,,-99.99,,2013-10-24 08:42:00,
2013-10-24 04:53:00,39.0,35.0,29.75,WSW,253,0.0,0.0,87,0.00,,,-99.99,,2013-10-24 08:53:00,
2013-10-24 05:22:00,39.0,35.0,29.77,WSW,253,0.0,0.0,87,0.00,,,-99.99,,2013-10-24 09:22:00,
2013-10-24 05:53:00,39.0,35.0,29.79,WSW,253,0.0,0.0,87,0.00,,,-99.99,,2013-10-24 09:53:00,
2013-10-24 06:23:00,39.0,35.0,29.80,WSW,253,0.0,0.0,87,0.00,,,-99.99,,2013-10-24 10:23:00,
2013-10-24 06:53:00,39.0,35.0,29.80,WSW,253,0.0,0.0,87,0.00,,,-99.99,,2013-10-24 10:53:00,
2013-10-24 07:22:00,39.0,35.0,29.81,WSW,253,0.0,0.0,87,0.00,,,-99.99,,2013-10-24 11:22:00,
2013-10-24 07:52:00,39.0,35.0,29.83,WSW,253,0.0,0.0,87,0.00,,,-99.99,,2013-10-24 11:52:00,
2013-10-24 08:22:00,39.0,35.0,29.85,WSW,253,0.0,0.0,87,0.00,,,-99.99,,2013-10-24 12:22:00,
2013-10-24 08:52:00,40.0,35.0,29.85,WNW,295,1.0,4.0,83,0.00,,,-99.99,,2013-10-24 12:52:00,
2013-10-24 09:12:00,40.0,35.0,29.86,West,264,1.0,5.0,81,0.00,,,-99.99,,2013-10-24 13:12:00,
2013-10-24 09:22:00,41.0,35.0,29.86,NNW,339,1.0,5.0,79,0.00,,,-99.99,,2013-10-24 13:22:00,
2013-10-24 09:32:00,41.0,35.0,29.86,NNW,339,1.0,5.0,79,0.00,,,-99.99,,2013-10-24 13:32:00,
2013-10-24 09:52:00,42.0,35.0,29.86,West,280,2.0,7.0,75,0.00,,,-99.99,,2013-10-24 13:52:00,
2013-10-24 10:11:00,43.0,34.0,29.87,WNW,285,2.0,6.0,70,0.00,,,-99.99,,2013-10-24 14:11:00,
2013-10-24 10:22:00,43.0,34.0,29.87,WNW,285,2.0,6.0,70,0.00,,,-99.99,,2013-10-24 14:22:00,
2013-10-24 10:42:00,44.0,33.0,29.87,WSW,255,3.0,9.0,66,0.00,,,-99.99,,2013-10-24 14:42:00,
2013-10-24 10:52:00,44.0,33.0,29.87,West,269,3.0,7.0,65,0.00,,,-99.99,,2013-10-24 14:52:00,
2013-10-24 11:11:00,46.0,34.0,29.86,SW,235,3.0,6.0,63,0.00,,,-99.99,,2013-10-24 15:11:00,
2013-10-24 11:21:00,46.0,34.0,29.86,SW,235,3.0,6.0,63,0.00,,,-99.99,,2013-10-24 15:21:00,
2013-10-24 11:53:00,47.0,32.0,29.85,WSW,248,3.0,10.0,55,0.00,,,-99.99,,2013-10-24 15:53:00,
2013-10-24 12:03:00,47.0,32.0,29.85,WSW,248,3.0,10.0,55,0.00,,,-99.99,,2013-10-24 16:03:00,
2013-10-24 12:23:00,49.0,30.0,29.84,NW,316,3.0,9.0,47,0.00,,,-99.99,,2013-10-24 16:23:00,
2013-10-24 12:43:00,50.0,31.0,29.84,West,281,2.0,7.0,47,0.00,,,-99.99,,2013-10-24 16:43:00,
2013-10-24 12:53:00,50.0,29.0,29.84,WNW,285,3.0,8.0,44,0.00,,,-99.99,,2013-10-24 16:53:00,
2013-10-24 13:22:00,51.0,29.0,29.83,NNE,30,3.0,11.0,42,0.00,,,-99.99,,2013-10-24 17:22:00,
2013-10-24 13:43:00,52.0,30.0,29.83,West,274,2.0,7.0,42,0.00,,,-99.99,,2013-10-24 17:43:00,
2013-10-24 13:52:00,52.0,30.0,29.83,West,274,2.0,7.0,42,0.00,,,-99.99,,2013-10-24 17:52:00,
2013-10-24 14:23:00,49.0,29.0,29.82,NW,307,4.0,11.0,45,0.00,,,-99.99,,2013-10-24 18:23:00,
2013-10-24 14:42:00,50.0,29.0,29.82,NW,315,4.0,12.0,45,0.00,,,-99.99,,2013-10-24 18:42:00,
2013-10-24 14:53:00,50.0,29.0,29.82,NW,315,4.0,12.0,45,0.00,,,-99.99,,2013-10-24 18:53:00,
2013-10-24 15:22:00,50.0,30.0,29.82,WNW,295,3.0,8.0,46,0.00,,,-99.99,,2013-10-24 19:22:00,
2013-10-24 15:43:00,50.0,29.0,29.82,NNW,333,2.0,5.0,45,0.00,,,-99.99,,2013-10-24 19:43:00,
2013-10-24 15:53:00,51.0,29.0,29.82,West,259,2.0,7.0,43,0.00,,,-99.99,,2013-10-24 19:53:00,
2013-10-24 16:11:00,51.0,29.0,29.82,WNW,297,2.0,8.0,43,0.00,,,-99.99,,2013-10-24 20:11:00,
2013-10-24 16:23:00,51.0,29.0,29.82,WNW,297,2.0,8.0,43,0.00,,,-99.99,,2013-10-24 20:23:00,
2013-10-24 16:53:00,50.0,29.0,29.83,WNW,295,1.0,5.0,45,0.00,,,-99.99,,2013-10-24 20:53:00,
2013-10-24 17:02:00,50.0,29.0,29.83,WNW,295,1.0,5.0,45,0.00,,,-99.99,,2013-10-24 21:02:00,
2013-10-24 17:22:00,50.0,30.0,29.83,North,7,1.0,2.0,46,0.00,,,-99.99,,2013-10-24 21:22:00,
2013-10-24 17:43:00,50.0,29.0,29.83,East,83,1.0,6.0,45,0.00,,,-99.99,,2013-10-24 21:43:00,
2013-10-24 17:54:00,49.0,28.0,29.84,North,11,1.0,5.0,44,0.00,,,-99.99,,2013-10-24 21:54:00,
2013-10-24 18:14:00,49.0,28.0,29.84,SW,218,1.0,4.0,44,0.00,,,-99.99,,2013-10-24 22:14:00,
2013-10-24 18:24:00,48.0,28.0,29.85,West,259,1.0,5.0,45,0.00,,,-99.99,,2013-10-24 22:24:00,
2013-10-24 18:54:00,46.0,28.0,29.87,NNW,340,0.0,1.0,49,0.00,,,-99.99,,2013-10-24 22:54:00,
2013-10-24 19:13:00,46.0,29.0,29.87,SE,129,0.0,4.0,51,0.00,,,-99.99,,2013-10-24 23:13:00,
2013-10-24 19:22:00,46.0,29.0,29.87,SE,129,0.0,4.0,51,0.00,,,-99.99,,2013-10-24 23:22:00,
2013-10-24 19:43:00,45.0,29.0,29.88,WSW,242,2.0,7.0,54,0.00,,,-99.99,,2013-10-24 23:43:00,
2013-10-24 19:53:00,45.0,29.0,29.88,WSW,242,2.0,7.0,54,0.00,,,-99.99,,2013-10-24 23:53:00,
2013-10-24 20:22:00,44.0,29.0,29.89,SE,135,0.0,3.0,56,0.00,,,-99.99,,2013-10-25 00:22:00,
2013-10-24 20:33:00,44.0,29.0,29.89,SE,135,0.0,3.0,56,0.00,,,-99.99,,2013-10-25 00:33:00,
2013-10-24 20:52:00,44.0,29.0,29.90,ESE,112,1.0,3.0,56,0.00,,,-99.99,,2013-10-25 00:52:00,
2013-10-24 21:22:00,44.0,30.0,29.90,SSE,167,1.0,4.0,57,0.00,,,-99.99,,2013-10-25 01:22:00,
2013-10-24 21:53:00,44.0,30.0,29.91,ENE,67,1.0,5.0,57,0.00,,,-99.99,,2013-10-25 01:53:00,
2013-10-24 22:02:00,44.0,30.0,29.91,ENE,67,1.0,5.0,57,0.00,,,-99.99,,2013-10-25 02:02:00,
2013-10-24 22:23:00,44.0,31.0,29.92,East,84,1.0,3.0,60,0.00,,,-99.99,,2013-10-25 02:23:00,
2013-10-24 22:52:00,43.0,30.0,29.93,East,96,1.0,3.0,61,0.00,,,-99.99,,2013-10-25 02:52:00,
2013-10-24 23:23:00,42.0,30.0,29.93,South,173,1.0,4.0,62,0.00,,,-99.99,,2013-10-25 03:23:00,
2013-10-24 23:54:00,42.0,30.0,29.93,East,80,1.0,6.0,62,0.00,,,-99.99,,2013-10-25 03:54:00,